createdAt,value
2023-02-19T00:01:52.450Z,11.31
2023-02-19T00:04:22.603Z,11.39
2023-02-19T00:06:50.835Z,11.30
2023-02-19T00:09:20.231Z,11.45
2023-02-19T00:11:48.322Z,11.34
2023-02-19T00:14:19.519Z,11.45
2023-02-19T00:16:48.196Z,11.36
2023-02-19T00:19:19.816Z,11.40
2023-02-19T00:21:52.083Z,11.44
2023-02-19T00:24:21.659Z,11.30
2023-02-19T00:26:49.722Z,11.39
2023-02-19T00:29:20.280Z,11.33
2023-02-19T00:31:49.037Z,11.23
2023-02-19T00:34:16.917Z,11.40
2023-02-19T00:36:44.815Z,11.40
2023-02-19T00:39:18.178Z,11.42
2023-02-19T00:41:46.535Z,11.34
2023-02-19T00:44:15.219Z,11.47
2023-02-19T00:46:46.036Z,11.49
2023-02-19T00:49:18.818Z,11.58
2023-02-19T00:51:47.526Z,11.50
2023-02-19T00:54:17.647Z,11.44
2023-02-19T00:56:46.121Z,11.50
2023-02-19T00:59:14.771Z,11.40
2023-02-19T01:01:47.388Z,11.47
2023-02-19T01:04:16.345Z,11.48
2023-02-19T01:06:44.456Z,11.36
2023-02-19T01:09:12.303Z,11.38
2023-02-19T01:11:41.532Z,11.32
2023-02-19T01:14:10.547Z,11.51
2023-02-19T01:16:38.458Z,11.46
2023-02-19T01:19:06.339Z,11.48
2023-02-19T01:21:34.265Z,11.47
2023-02-19T01:24:02.059Z,11.32
2023-02-19T01:26:32.780Z,11.43
2023-02-19T01:29:03.116Z,11.30
2023-02-19T01:31:32.681Z,11.41
2023-02-19T01:34:04.583Z,11.38
2023-02-19T01:36:34.259Z,11.41
2023-02-19T01:39:05.073Z,11.23
2023-02-19T01:41:39.445Z,11.40
2023-02-19T01:45:05.946Z,11.49
2023-02-19T01:47:33.963Z,11.49
2023-02-19T01:50:01.905Z,11.42
2023-02-19T01:52:34.325Z,11.44
2023-02-19T01:55:08.002Z,11.34
2023-02-19T01:57:43.497Z,11.26
2023-02-19T02:00:16.319Z,11.37
2023-02-19T02:02:52.256Z,11.32
2023-02-19T02:05:37.675Z,11.29
2023-02-19T02:08:24.930Z,11.26
2023-02-19T02:10:54.286Z,11.34
2023-02-19T02:13:22.371Z,11.40
2023-02-19T02:16:05.218Z,11.37
2023-02-19T02:18:51.503Z,11.40
2023-02-19T02:21:53.083Z,11.41
2023-02-19T02:25:04.289Z,11.35
2023-02-19T02:27:49.121Z,11.34
2023-02-19T02:30:32.416Z,11.34
2023-02-19T02:33:17.839Z,11.15
2023-02-19T02:35:51.410Z,11.38
2023-02-19T02:38:28.075Z,11.33
2023-02-19T02:40:57.314Z,11.26
2023-02-19T02:43:26.329Z,11.27
2023-02-19T02:45:56.613Z,11.31
2023-02-19T02:48:40.017Z,11.20
2023-02-19T02:51:17.588Z,11.13
2023-02-19T02:54:17.352Z,11.16
2023-02-19T02:56:48.870Z,11.18
2023-02-19T02:59:23.560Z,11.15
2023-02-19T03:02:11.061Z,10.99
2023-02-19T03:05:11.335Z,11.19
2023-02-19T03:07:45.775Z,11.06
2023-02-19T03:10:23.527Z,11.07
2023-02-19T03:13:14.536Z,11.03
2023-02-19T03:16:09.430Z,11.17
2023-02-19T03:19:01.922Z,11.05
2023-02-19T03:21:31.081Z,11.00
2023-02-19T03:24:17.770Z,11.07
2023-02-19T03:26:53.761Z,10.91
2023-02-19T03:29:27.906Z,11.00
2023-02-19T03:32:06.936Z,10.97
2023-02-19T03:34:43.026Z,10.87
2023-02-19T03:37:16.798Z,10.88
2023-02-19T03:39:45.712Z,10.90
2023-02-19T03:42:36.908Z,10.88
2023-02-19T03:45:32.693Z,10.84
2023-02-19T03:48:22.970Z,10.87
2023-02-19T03:51:12.877Z,10.74
2023-02-19T03:53:55.782Z,10.85
2023-02-19T03:56:33.874Z,10.79
2023-02-19T03:59:10.946Z,10.81
2023-02-19T04:01:47.132Z,10.82
2023-02-19T04:04:20.329Z,10.82
2023-02-19T04:06:55.320Z,10.79
2023-02-19T04:09:29.912Z,10.74
2023-02-19T04:12:07.241Z,10.80
2023-02-19T04:14:43.157Z,10.85
2023-02-19T04:17:20.031Z,10.75
2023-02-19T04:19:51.364Z,10.74
2023-02-19T04:22:22.987Z,10.81
2023-02-19T04:24:54.032Z,10.67
2023-02-19T04:27:21.965Z,10.66
2023-02-19T04:29:49.732Z,10.68
2023-02-19T04:32:17.717Z,10.68
2023-02-19T04:34:45.770Z,10.79
2023-02-19T04:37:13.694Z,10.75
2023-02-19T04:39:42.870Z,10.60
2023-02-19T04:42:11.170Z,10.61
2023-02-19T04:44:38.990Z,10.62
2023-02-19T04:47:06.852Z,10.70
2023-02-19T04:49:34.791Z,10.67
2023-02-19T04:52:02.638Z,10.68
2023-02-19T04:54:30.373Z,10.62
2023-02-19T04:56:59.536Z,10.56
2023-02-19T04:59:27.684Z,10.72
2023-02-19T05:01:57.416Z,10.81
2023-02-19T05:04:25.335Z,10.69
2023-02-19T05:06:53.170Z,10.65
2023-02-19T05:09:21.211Z,10.77
2023-02-19T05:11:48.998Z,10.75
2023-02-19T05:14:18.166Z,10.73
2023-02-19T05:16:46.172Z,10.80
2023-02-19T05:19:14.198Z,10.72
2023-02-19T05:21:42.150Z,10.70
2023-02-19T05:24:10.026Z,10.76
2023-02-19T05:26:37.908Z,10.61
2023-02-19T05:29:05.810Z,10.78
2023-02-19T05:31:35.143Z,10.79
2023-02-19T05:34:03.352Z,10.64
2023-02-19T05:36:32.052Z,10.72
2023-02-19T05:39:00.009Z,10.77
2023-02-19T05:41:30.146Z,10.82
2023-02-19T05:43:58.394Z,10.72
2023-02-19T05:46:32.227Z,10.72
2023-02-19T05:49:01.676Z,10.72
2023-02-19T05:51:29.504Z,10.58
2023-02-19T05:53:58.075Z,10.73
2023-02-19T05:56:33.828Z,10.76
2023-02-19T05:59:06.703Z,10.74
2023-02-19T06:01:35.624Z,10.78
2023-02-19T06:04:05.205Z,10.76
2023-02-19T06:06:33.232Z,10.68
2023-02-19T06:09:01.002Z,10.64
2023-02-19T06:11:30.000Z,10.54
2023-02-19T06:13:57.802Z,10.69
2023-02-19T06:16:25.687Z,10.67
2023-02-19T06:18:53.540Z,10.46
2023-02-19T06:21:22.796Z,10.45
2023-02-19T06:23:50.601Z,10.41
2023-02-19T06:26:22.225Z,10.35
2023-02-19T06:28:52.961Z,10.42
2023-02-19T06:31:23.082Z,10.45
2023-02-19T06:33:51.049Z,10.38
2023-02-19T06:36:22.600Z,10.30
2023-02-19T06:38:51.147Z,10.18
2023-02-19T06:41:19.365Z,10.24
2023-02-19T06:43:47.328Z,10.29
2023-02-19T06:46:15.224Z,10.33
2023-02-19T06:48:45.907Z,10.26
2023-02-19T06:51:23.733Z,10.35
2023-02-19T06:53:53.254Z,10.43
2023-02-19T06:56:25.903Z,10.57
2023-02-19T06:58:56.442Z,10.48
2023-02-19T07:01:24.547Z,10.37
2023-02-19T07:03:52.942Z,10.51
2023-02-19T07:06:22.157Z,10.40
2023-02-19T07:08:55.475Z,10.43
2023-02-19T07:11:24.783Z,10.41
2023-02-19T07:13:55.252Z,10.46
2023-02-19T07:16:24.357Z,10.50
2023-02-19T07:18:52.654Z,10.48
2023-02-19T07:21:20.420Z,10.48
2023-02-19T07:23:48.176Z,10.58
2023-02-19T07:26:19.578Z,10.52
2023-02-19T07:28:50.805Z,10.62
2023-02-19T07:31:22.470Z,10.52
2023-02-19T07:33:51.147Z,10.55
2023-02-19T07:36:20.501Z,10.50
2023-02-19T07:38:55.231Z,10.43
2023-02-19T07:41:25.914Z,10.35
2023-02-19T07:43:56.590Z,10.19
2023-02-19T07:46:24.898Z,10.25
2023-02-19T07:48:52.746Z,10.29
2023-02-19T07:51:21.100Z,10.07
2023-02-19T07:53:52.396Z,9.84
2023-02-19T07:56:21.069Z,9.78
2023-02-19T07:58:50.334Z,9.81
2023-02-19T08:01:40.354Z,9.79
2023-02-19T08:04:08.983Z,9.56
2023-02-19T08:06:36.828Z,9.39
2023-02-19T08:09:05.881Z,9.35
2023-02-19T08:11:52.542Z,9.22
2023-02-19T08:14:25.055Z,9.23
2023-02-19T08:16:54.023Z,9.09
2023-02-19T08:19:22.602Z,9.04
2023-02-19T08:21:50.644Z,9.09
2023-02-19T08:24:18.479Z,9.03
2023-02-19T08:26:46.311Z,8.94
2023-02-19T08:29:14.191Z,8.88
2023-02-19T08:31:43.458Z,8.95
2023-02-19T08:34:11.338Z,9.05
2023-02-19T08:36:39.195Z,9.11
2023-02-19T08:39:07.060Z,8.98
2023-02-19T08:41:34.885Z,8.81
2023-02-19T08:44:02.748Z,8.88
2023-02-19T08:46:31.105Z,8.89
2023-02-19T08:49:01.091Z,8.88
2023-02-19T08:51:28.873Z,8.75
2023-02-19T08:53:56.604Z,8.91
2023-02-19T08:56:24.489Z,8.89
2023-02-19T08:58:52.167Z,8.76
2023-02-19T09:01:20.111Z,8.89
2023-02-19T09:03:48.005Z,8.96
2023-02-19T09:06:20.414Z,8.90
2023-02-19T09:08:48.314Z,9.11
2023-02-19T09:11:16.307Z,9.01
2023-02-19T09:13:44.814Z,9.02
2023-02-19T09:16:13.168Z,9.05
2023-02-19T09:18:41.004Z,8.83
2023-02-19T09:21:09.129Z,8.72
2023-02-19T09:23:38.632Z,8.75
2023-02-19T09:26:09.900Z,8.73
2023-02-19T09:28:41.456Z,8.75
2023-02-19T09:31:12.563Z,8.88
2023-02-19T09:33:43.512Z,8.91
2023-02-19T09:36:12.543Z,8.98
2023-02-19T09:38:42.717Z,8.92
2023-02-19T09:41:22.402Z,8.78
2023-02-19T09:43:51.149Z,8.60
2023-02-19T09:46:30.410Z,8.67
2023-02-19T09:49:05.077Z,8.70
2023-02-19T09:51:37.776Z,8.84
2023-02-19T09:54:17.483Z,8.91
2023-02-19T09:56:45.576Z,8.94
2023-02-19T09:59:22.136Z,9.00
2023-02-19T10:01:57.627Z,9.05
2023-02-19T10:04:25.669Z,9.12
2023-02-19T10:06:58.988Z,9.21
2023-02-19T10:09:31.058Z,9.26
2023-02-19T10:12:00.301Z,9.20
2023-02-19T10:14:38.806Z,9.30
2023-02-19T10:17:20.828Z,9.25
2023-02-19T10:19:49.657Z,9.10
2023-02-19T10:22:18.346Z,9.21
2023-02-19T10:24:52.882Z,9.28
2023-02-19T10:27:20.909Z,9.35
2023-02-19T10:29:54.605Z,9.40
2023-02-19T10:32:25.634Z,9.38
2023-02-19T10:35:11.777Z,9.40
2023-02-19T10:37:44.309Z,9.31
2023-02-19T10:40:17.738Z,9.26
2023-02-19T10:42:48.695Z,9.35
2023-02-19T10:45:22.629Z,9.19
2023-02-19T10:47:52.264Z,9.31
2023-02-19T10:50:29.742Z,9.34
2023-02-19T10:53:00.859Z,9.52
2023-02-19T10:55:37.519Z,9.58
2023-02-19T10:58:26.743Z,9.44
2023-02-19T11:01:13.452Z,9.35
2023-02-19T11:03:41.920Z,9.39
2023-02-19T11:06:13.145Z,9.42
2023-02-19T11:08:57.580Z,9.52
2023-02-19T11:11:34.038Z,9.78
2023-02-19T11:14:12.943Z,9.87
2023-02-19T11:16:45.286Z,10.05
2023-02-19T11:19:31.500Z,10.07
2023-02-19T11:22:01.530Z,10.07
2023-02-19T11:24:35.068Z,10.00
2023-02-19T11:27:16.123Z,10.22
2023-02-19T11:29:44.077Z,10.14
2023-02-19T11:32:29.596Z,10.11
2023-02-19T11:35:18.781Z,10.17
2023-02-19T11:37:59.169Z,10.16
2023-02-19T11:40:41.510Z,10.13
2023-02-19T11:43:44.662Z,10.37
2023-02-19T11:46:22.884Z,10.70
2023-02-19T11:49:03.917Z,10.78
2023-02-19T11:51:57.518Z,11.11
2023-02-19T11:54:51.017Z,11.26
2023-02-19T11:57:38.090Z,11.34
2023-02-19T12:00:24.829Z,11.44
2023-02-19T12:03:23.512Z,11.52
2023-02-19T12:06:18.452Z,11.62
2023-02-19T12:09:10.459Z,11.77
2023-02-19T12:12:04.240Z,11.74
2023-02-19T12:15:06.840Z,11.57
2023-02-19T12:17:57.681Z,11.46
2023-02-19T12:20:34.871Z,11.40
2023-02-19T12:23:37.095Z,11.55
2023-02-19T12:26:20.878Z,11.55
2023-02-19T12:29:15.592Z,11.73
2023-02-19T12:32:20.319Z,11.79
2023-02-19T12:35:25.988Z,12.00
2023-02-19T12:38:10.732Z,12.03
2023-02-19T12:40:57.974Z,11.89
2023-02-19T12:43:26.438Z,11.79
2023-02-19T12:46:00.431Z,11.70
2023-02-19T12:48:35.316Z,11.72
2023-02-19T12:51:11.940Z,11.84
2023-02-19T12:53:48.847Z,11.77
2023-02-19T12:56:24.950Z,11.56
2023-02-19T12:59:02.125Z,11.88
2023-02-19T13:01:41.613Z,12.06
2023-02-19T13:04:29.838Z,12.22
2023-02-19T13:07:05.937Z,12.14
2023-02-19T13:09:39.674Z,11.97
2023-02-19T13:12:14.084Z,12.04
2023-02-19T13:14:46.419Z,12.07
2023-02-19T13:17:26.857Z,12.00
2023-02-19T13:20:07.847Z,11.89
2023-02-19T13:23:04.631Z,12.01
2023-02-19T13:25:50.548Z,12.30
2023-02-19T13:28:42.087Z,12.46
2023-02-19T13:31:41.749Z,12.37
2023-02-19T13:34:24.786Z,12.64
2023-02-19T13:36:54.509Z,12.52
2023-02-19T13:39:23.954Z,12.41
2023-02-19T13:41:55.690Z,12.54
2023-02-19T13:44:28.614Z,12.58
2023-02-19T13:46:57.370Z,12.22
2023-02-19T13:49:48.937Z,12.37
2023-02-19T13:52:40.729Z,12.33
2023-02-19T13:55:53.104Z,12.18
2023-02-19T13:58:54.525Z,11.95
2023-02-19T14:02:26.625Z,12.02
2023-02-19T14:05:00.292Z,11.79
2023-02-19T14:07:58.001Z,11.43
2023-02-19T14:10:57.568Z,11.68
2023-02-19T14:13:56.257Z,11.67
2023-02-19T14:16:47.924Z,11.35
2023-02-19T14:19:50.121Z,11.49
2023-02-19T14:23:04.274Z,11.25
2023-02-19T14:25:47.869Z,11.30
2023-02-19T14:28:36.413Z,11.25
2023-02-19T14:31:29.067Z,11.46
2023-02-19T14:34:01.456Z,11.67
2023-02-19T14:36:39.711Z,11.59
2023-02-19T14:39:16.984Z,11.51
2023-02-19T14:41:49.674Z,11.50
2023-02-19T14:44:23.374Z,11.54
2023-02-19T14:46:59.425Z,11.60
2023-02-19T14:49:36.845Z,11.75
2023-02-19T14:52:15.069Z,11.65
2023-02-19T14:54:50.847Z,11.39
2023-02-19T14:57:27.079Z,11.68
2023-02-19T15:00:00.712Z,11.78
2023-02-19T15:02:32.068Z,11.70
2023-02-19T15:05:00.283Z,11.46
2023-02-19T15:07:33.871Z,11.40
2023-02-19T15:10:06.015Z,11.29
2023-02-19T15:12:45.825Z,11.46
2023-02-19T15:15:23.916Z,11.34
2023-02-19T15:17:54.237Z,11.33
2023-02-19T15:20:26.406Z,11.50
2023-02-19T15:22:59.674Z,11.47
2023-02-19T15:25:34.717Z,11.39
2023-02-19T15:28:28.764Z,11.45
2023-02-19T15:31:12.163Z,11.45
2023-02-19T15:33:48.465Z,11.44
2023-02-19T15:36:24.783Z,11.39
2023-02-19T15:38:57.325Z,11.33
2023-02-19T15:41:30.149Z,11.30
2023-02-19T15:44:15.065Z,11.30
2023-02-19T15:46:46.158Z,11.46
2023-02-19T15:49:19.503Z,11.22
2023-02-19T15:51:54.845Z,11.33
2023-02-19T15:54:30.882Z,11.15
2023-02-19T15:57:06.888Z,11.14
2023-02-19T15:59:44.265Z,11.10
2023-02-19T16:02:14.589Z,10.95
2023-02-19T16:04:45.525Z,10.77
2023-02-19T16:07:26.472Z,10.73
2023-02-19T16:10:21.686Z,10.77
2023-02-19T16:12:58.070Z,10.57
2023-02-19T16:15:28.183Z,10.50
2023-02-19T16:17:57.747Z,10.24
2023-02-19T16:20:29.975Z,10.34
2023-02-19T16:23:03.894Z,10.27
2023-02-19T16:25:41.924Z,10.21
2023-02-19T16:28:13.133Z,10.22
2023-02-19T16:30:42.172Z,10.06
2023-02-19T16:33:36.138Z,10.19
2023-02-19T16:36:39.212Z,10.17
2023-02-19T16:39:20.083Z,10.03
2023-02-19T16:42:16.810Z,10.15
2023-02-19T16:44:48.658Z,10.16
2023-02-19T16:47:29.391Z,10.05
2023-02-19T16:50:00.552Z,10.10
2023-02-19T16:52:29.497Z,9.98
2023-02-19T16:54:57.399Z,9.92
2023-02-19T16:57:26.796Z,9.91
2023-02-19T16:59:54.562Z,9.93
2023-02-19T17:02:24.950Z,9.90
2023-02-19T17:04:55.194Z,9.98
2023-02-19T17:07:23.684Z,9.90
2023-02-19T17:09:51.468Z,9.90
2023-02-19T17:12:20.164Z,9.78
2023-02-19T17:14:49.434Z,9.89
2023-02-19T17:17:17.224Z,9.82
2023-02-19T17:19:45.057Z,9.90
2023-02-19T17:22:16.765Z,9.61
2023-02-19T17:24:46.014Z,9.60
2023-02-19T17:27:14.423Z,9.57
2023-02-19T17:29:44.184Z,9.41
2023-02-19T17:32:14.536Z,9.45
2023-02-19T17:34:42.531Z,9.45
2023-02-19T17:37:10.298Z,9.42
2023-02-19T17:39:38.116Z,9.38
2023-02-19T17:42:06.050Z,9.38
2023-02-19T17:44:33.883Z,9.45
2023-02-19T17:47:01.901Z,9.33
2023-02-19T17:49:31.113Z,9.22
2023-02-19T17:51:59.581Z,9.26
2023-02-19T17:54:27.746Z,9.26
2023-02-19T17:56:55.617Z,9.33
2023-02-19T17:59:23.792Z,9.41
2023-02-19T18:01:51.762Z,9.40
2023-02-19T18:04:19.916Z,9.38
2023-02-19T18:06:49.404Z,9.32
2023-02-19T18:09:19.330Z,9.35
2023-02-19T18:11:47.371Z,9.26
2023-02-19T18:14:15.355Z,9.41
2023-02-19T18:16:49.689Z,9.39
2023-02-19T18:19:18.413Z,9.27
2023-02-19T18:21:46.319Z,9.22
2023-02-19T18:24:15.476Z,9.20
2023-02-19T18:26:43.580Z,9.28
2023-02-19T18:29:11.535Z,9.33
2023-02-19T18:31:39.472Z,9.39
2023-02-19T18:34:17.589Z,9.42
2023-02-19T18:36:46.039Z,9.41
2023-02-19T18:39:15.977Z,9.39
2023-02-19T18:41:47.899Z,9.33
2023-02-19T18:44:18.708Z,9.27
2023-02-19T18:46:46.813Z,9.34
2023-02-19T18:49:15.255Z,9.36
2023-02-19T18:51:44.079Z,9.33
2023-02-19T18:54:11.863Z,9.28
2023-02-19T18:56:46.247Z,9.21
2023-02-19T18:59:14.172Z,9.14
2023-02-19T19:01:42.555Z,9.10
2023-02-19T19:04:10.616Z,9.06
2023-02-19T19:06:38.533Z,8.94
2023-02-19T19:09:06.617Z,9.06
2023-02-19T19:11:35.422Z,8.95
2023-02-19T19:14:04.778Z,8.77
2023-02-19T19:16:32.580Z,8.86
2023-02-19T19:19:00.585Z,8.87
2023-02-19T19:21:28.606Z,8.77
2023-02-19T19:23:56.395Z,8.75
2023-02-19T19:26:24.276Z,8.81
2023-02-19T19:28:52.090Z,8.90
2023-02-19T19:31:22.849Z,8.68
2023-02-19T19:33:51.182Z,8.77
2023-02-19T19:36:22.047Z,8.76
2023-02-19T19:38:49.837Z,8.80
2023-02-19T19:41:20.076Z,8.92
2023-02-19T19:43:48.395Z,8.86
2023-02-19T19:46:19.734Z,8.89
2023-02-19T19:48:52.848Z,8.83
2023-02-19T19:51:20.863Z,8.71
2023-02-19T19:53:50.363Z,8.86
2023-02-19T19:56:18.588Z,8.82
2023-02-19T19:58:48.102Z,8.91
2023-02-19T20:01:20.813Z,8.88
2023-02-19T20:03:53.446Z,8.84
2023-02-19T20:06:27.492Z,8.88
2023-02-19T20:08:55.358Z,8.90
2023-02-19T20:11:23.648Z,8.93
2023-02-19T20:13:51.714Z,8.81
2023-02-19T20:16:25.074Z,8.68
2023-02-19T20:18:54.644Z,8.74
2023-02-19T20:21:22.498Z,8.78
2023-02-19T20:23:50.399Z,8.91
2023-02-19T20:26:24.316Z,8.79
2023-02-19T20:28:52.571Z,8.95
2023-02-19T20:31:20.844Z,8.92
2023-02-19T20:33:51.051Z,9.14
2023-02-19T20:36:20.672Z,8.72
2023-02-19T20:38:49.917Z,8.68
2023-02-19T20:41:17.618Z,8.59
2023-02-19T20:43:45.358Z,8.52
2023-02-19T20:46:13.558Z,8.70
2023-02-19T20:48:41.643Z,8.62
2023-02-19T20:51:09.571Z,8.57
2023-02-19T20:53:40.702Z,8.60
2023-02-19T20:56:08.812Z,8.74
2023-02-19T20:58:37.050Z,8.57
2023-02-19T21:01:05.400Z,8.61
2023-02-19T21:03:33.316Z,8.64
2023-02-19T21:06:01.028Z,8.57
2023-02-19T21:08:28.848Z,8.66
2023-02-19T21:10:58.014Z,8.55
2023-02-19T21:13:25.800Z,8.52
2023-02-19T21:15:53.634Z,8.51
2023-02-19T21:18:21.820Z,8.51
2023-02-19T21:20:49.682Z,8.48
2023-02-19T21:23:17.591Z,8.52
2023-02-19T21:25:45.634Z,8.40
2023-02-19T21:28:14.871Z,8.43
2023-02-19T21:30:42.695Z,8.36
2023-02-19T21:33:10.504Z,8.23
2023-02-19T21:35:38.261Z,8.17
2023-02-19T21:38:06.099Z,8.30
2023-02-19T21:40:34.124Z,8.23
2023-02-19T21:43:02.021Z,8.33
2023-02-19T21:45:31.149Z,8.38
2023-02-19T21:47:59.047Z,8.29
2023-02-19T21:50:26.872Z,8.41
2023-02-19T21:52:55.192Z,8.38
2023-02-19T21:55:23.139Z,8.27
2023-02-19T21:57:50.873Z,8.21
2023-02-19T22:00:19.423Z,8.21
2023-02-19T22:02:48.755Z,8.15
2023-02-19T22:05:16.774Z,8.19
2023-02-19T22:07:44.663Z,8.19
2023-02-19T22:10:13.422Z,8.21
2023-02-19T22:12:41.206Z,8.19
2023-02-19T22:15:08.967Z,8.06
2023-02-19T22:17:36.816Z,8.04
2023-02-19T22:20:07.683Z,7.91
2023-02-19T22:22:35.450Z,7.99
2023-02-19T22:25:03.287Z,7.89
2023-02-19T22:27:31.338Z,7.79
2023-02-19T22:29:59.588Z,7.86
2023-02-19T22:32:27.738Z,7.88
2023-02-19T22:34:55.627Z,7.80
2023-02-19T22:37:24.764Z,7.81
2023-02-19T22:39:52.923Z,7.67
2023-02-19T22:42:21.025Z,7.55
2023-02-19T22:44:48.960Z,7.48
2023-02-19T22:47:19.065Z,7.52
2023-02-19T22:49:47.044Z,7.51
2023-02-19T22:52:15.045Z,7.49
2023-02-19T22:54:44.217Z,7.51
2023-02-19T22:57:12.024Z,7.46
2023-02-19T22:59:39.845Z,7.46
2023-02-19T23:02:07.700Z,7.50
2023-02-19T23:04:35.637Z,7.42
2023-02-19T23:07:05.226Z,7.43
2023-02-19T23:09:33.182Z,7.28
2023-02-19T23:12:04.939Z,7.25
2023-02-19T23:14:33.148Z,7.40
2023-02-19T23:17:01.108Z,7.31
2023-02-19T23:19:29.329Z,7.30
2023-02-19T23:21:57.356Z,7.24
2023-02-19T23:24:25.252Z,7.32
2023-02-19T23:26:53.922Z,7.36
2023-02-19T23:29:26.430Z,7.28
2023-02-19T23:31:55.137Z,7.30
2023-02-19T23:34:24.233Z,7.36
2023-02-19T23:36:52.366Z,7.30
2023-02-19T23:39:21.764Z,7.23
2023-02-19T23:41:54.110Z,7.35
2023-02-19T23:44:25.590Z,7.50
2023-02-19T23:46:53.569Z,7.47
2023-02-19T23:49:21.673Z,7.44
2023-02-19T23:51:49.581Z,7.47
2023-02-19T23:54:17.431Z,7.51
2023-02-19T23:56:45.300Z,7.49
2023-02-19T23:59:13.273Z,7.49
